Wetterdaten: Woche 28.09.09 - 04.10.09 (KW40)
Datum Zeit Temp. Innen Temp. Aussen UV X Diff Temp. Feuchte Inne Feuchte Auss Sonnenschein Luftdruck Regen ab 0,1 Wind Sonnenschein Windben
28.09.2009 00:00 19,8 C 10,5 C 0,0 UV-I 0,0 C 55 % 87 % 0 % 1026,6 hPa 0,0 l/m 0,0 km/h (0 Bft) 0,00 h 0,0 km/h (0 Bft)
28.09.2009 01:00 19,6 C 10,0 C 0,0 UV-I 0,0 C 55 % 88 % 0 % 1026,2 hPa 0,0 l/m 0,0 km/h (0 Bft) 0,00 h 0,0 km/h (0 Bft)
28.09.2009 02:00 19,4 C 9,5 C 0,0 UV-I 0,0 C 55 % 90 % 0 % 1026,4 hPa 0,0 l/m 0,0 km/h (0 Bft) 0,00 h 0,0 km/h (0 Bft)
28.09.2009 03:00 19,3 C 9,1 C 0,0 UV-I 0,0 C 54 % 90 % 0 % 1026,3 hPa 0,0 l/m 0,0 km/h (0 Bft) 0,00 h 0,0 km/h (0 Bft)
28.09.2009 04:00 19,1 C 8,6 C 0,0 UV-I 0,0 C 54 % 91 % 0 % 1025,8 hPa 0,0 l/m 0,0 km/h (0 Bft) 0,00 h 0,0 km/h (0 Bft)
28.09.2009 05:00 18,8 C 8,4 C 0,0 UV-I 0,0 C 55 % 91 % 0 % 1025,4 hPa 0,0 l/m 0,0 km/h (0 Bft) 0,00 h 0,0 km/h (0 Bft)
28.09.2009 06:00 18,8 C 8,4 C 0,0 UV-I 0,0 C 55 % 92 % 0 % 1025,4 hPa 0,0 l/m 0,0 km/h (0 Bft) 0,00 h 0,0 km/h (0 Bft)
28.09.2009 07:00 18,5 C 8,9 C 0,0 UV-I 0,1 C 56 % 94 % 1 % 1025,3 hPa 0,0 l/m 0,2 km/h (0 Bft) 0,00 h 0,6 km/h (0 Bft)
28.09.2009 08:00 18,4 C 9,8 C 0,0 UV-I 0,2 C 58 % 95 % 4 % 1025,3 hPa 0,0 l/m 0,5 km/h (0 Bft) 0,00 h 1,2 km/h (1 Bft)
28.09.2009 09:00 18,4 C 10,5 C 0,2 UV-I 0,3 C 59 % 95 % 9 % 1025,6 hPa 0,0 l/m 0,2 km/h (0 Bft) 0,00 h 0,2 km/h (0 Bft)
28.09.2009 10:00 18,7 C 11,9 C 1,3 UV-I 1,6 C 60 % 95 % 45 % 1026,1 hPa 0,0 l/m 0,9 km/h (0 Bft) 0,17 h 1,8 km/h (1 Bft)
28.09.2009 11:00 19,1 C 14,0 C 2,2 UV-I 2,9 C 62 % 93 % 79 % 1026,4 hPa 0,0 l/m 1,8 km/h (1 Bft) 0,37 h 2,9 km/h (1 Bft)
28.09.2009 12:00 19,5 C 15,8 C 2,2 UV-I 2,2 C 61 % 86 % 63 % 1026,6 hPa 0,0 l/m 2,3 km/h (1 Bft) 0,03 h 4,1 km/h (1 Bft)
28.09.2009 13:00 19,9 C 17,4 C 3,4 UV-I 2,8 C 61 % 80 % 74 % 1026,0 hPa 0,0 l/m 2,0 km/h (1 Bft) 0,40 h 4,0 km/h (1 Bft)
28.09.2009 14:00 20,8 C 19,0 C 3,8 UV-I 3,3 C 58 % 70 % 89 % 1026,3 hPa 0,0 l/m 2,7 km/h (1 Bft) 0,70 h 5,2 km/h (1 Bft)
28.09.2009 15:00 21,0 C 19,2 C 1,1 UV-I 0,7 C 57 % 67 % 21 % 1025,1 hPa 0,0 l/m 2,0 km/h (1 Bft) 0,00 h 3,3 km/h (1 Bft)
28.09.2009 16:00 20,9 C 18,6 C 0,2 UV-I 0,0 C 57 % 69 % 1 % 1024,2 hPa 0,0 l/m 1,7 km/h (1 Bft) 0,00 h 2,9 km/h (1 Bft)
28.09.2009 17:00 20,8 C 18,1 C 0,1 UV-I 0,0 C 57 % 71 % 0 % 1023,5 hPa 0,0 l/m 1,9 km/h (1 Bft) 0,00 h 3,4 km/h (1 Bft)
28.09.2009 18:00 20,6 C 17,8 C 0,0 UV-I 0,0 C 57 % 73 % 0 % 1023,0 hPa 0,0 l/m 1,3 km/h (1 Bft) 0,00 h 2,1 km/h (1 Bft)
28.09.2009 19:00 20,5 C 17,3 C 0,0 UV-I 0,0 C 58 % 74 % 0 % 1022,9 hPa 0,0 l/m 0,7 km/h (0 Bft) 0,00 h 1,8 km/h (1 Bft)
28.09.2009 20:00 20,4 C 16,9 C 0,0 UV-I 0,0 C 58 % 77 % 0 % 1022,8 hPa 0,0 l/m 0,4 km/h (0 Bft) 0,00 h 1,1 km/h (0 Bft)
28.09.2009 21:00 20,4 C 16,6 C 0,0 UV-I 0,0 C 59 % 77 % 0 % 1022,9 hPa 0,0 l/m 1,9 km/h (1 Bft) 0,00 h 2,7 km/h (1 Bft)
28.09.2009 22:00 20,4 C 16,3 C 0,0 UV-I 0,0 C 59 % 77 % 0 % 1023,0 hPa 0,0 l/m 1,8 km/h (1 Bft) 0,00 h 3,1 km/h (1 Bft)
28.09.2009 23:00 20,4 C 16,0 C 0,0 UV-I 0,0 C 59 % 79 % 0 % 1022,7 hPa 0,0 l/m 1,4 km/h (1 Bft) 0,00 h 2,4 km/h (1 Bft)
29.09.2009 00:00 20,3 C 15,6 C 0,0 UV-I 0,0 C 59 % 80 % 0 % 1022,1 hPa 0,0 l/m 1,4 km/h (1 Bft) 0,00 h 5,1 km/h (1 Bft)
29.09.2009 01:00 20,2 C 15,1 C 0,0 UV-I 0,0 C 59 % 80 % 0 % 1021,9 hPa 0,0 l/m 1,0 km/h (0 Bft) 0,00 h 1,9 km/h (1 Bft)
29.09.2009 02:00 20,1 C 14,5 C 0,0 UV-I 0,0 C 59 % 83 % 0 % 1021,8 hPa 0,0 l/m 1,3 km/h (1 Bft) 0,00 h 2,8 km/h (1 Bft)
29.09.2009 03:00 20,0 C 14,5 C 0,0 UV-I 0,0 C 59 % 82 % 0 % 1021,4 hPa 0,0 l/m 2,0 km/h (1 Bft) 0,00 h 3,5 km/h (1 Bft)
29.09.2009 04:00 19,7 C 14,7 C 0,0 UV-I 0,0 C 59 % 82 % 0 % 1020,9 hPa 0,0 l/m 2,3 km/h (1 Bft) 0,00 h 4,0 km/h (1 Bft)
29.09.2009 05:00 19,6 C 14,7 C 0,0 UV-I 0,0 C 60 % 82 % 0 % 1020,5 hPa 0,0 l/m 2,2 km/h (1 Bft) 0,00 h 3,5 km/h (1 Bft)
29.09.2009 06:00 19,6 C 14,5 C 0,0 UV-I 0,0 C 60 % 83 % 0 % 1020,5 hPa 0,0 l/m 1,8 km/h (1 Bft) 0,00 h 3,4 km/h (1 Bft)
29.09.2009 07:00 19,6 C 14,4 C 0,0 UV-I 0,0 C 62 % 86 % 0 % 1020,4 hPa 0,0 l/m 0,9 km/h (0 Bft) 0,00 h 2,4 km/h (1 Bft)
29.09.2009 08:00 19,5 C 14,5 C 0,0 UV-I 0,0 C 63 % 87 % 0 % 1020,7 hPa 0,0 l/m 1,8 km/h (1 Bft) 0,00 h 3,1 km/h (1 Bft)
29.09.2009 09:00 19,6 C 14,9 C 0,4 UV-I 0,3 C 63 % 87 % 8 % 1020,9 hPa 0,0 l/m 1,6 km/h (1 Bft) 0,00 h 3,0 km/h (1 Bft)
29.09.2009 10:00 19,8 C 15,9 C 1,3 UV-I 1,3 C 64 % 86 % 38 % 1021,2 hPa 0,0 l/m 2,4 km/h (1 Bft) 0,00 h 3,8 km/h (1 Bft)
29.09.2009 11:00 20,1 C 17,1 C 1,7 UV-I 1,8 C 64 % 82 % 52 % 1021,4 hPa 0,0 l/m 3,2 km/h (1 Bft) 0,00 h 5,8 km/h (2 Bft)
29.09.2009 12:00 20,5 C 18,3 C 4,2 UV-I 2,6 C 63 % 77 % 67 % 1021,2 hPa 0,0 l/m 4,6 km/h (1 Bft) 0,30 h 9,4 km/h (2 Bft)
29.09.2009 13:00 20,8 C 19,0 C 1,3 UV-I 0,9 C 61 % 73 % 26 % 1020,6 hPa 0,0 l/m 3,6 km/h (1 Bft) 0,13 h 5,5 km/h (1 Bft)
29.09.2009 14:00 20,7 C 18,2 C 0,4 UV-I 0,0 C 61 % 74 % 0 % 1020,1 hPa 0,0 l/m 4,1 km/h (1 Bft) 0,00 h 7,4 km/h (2 Bft)
29.09.2009 15:00 20,7 C 18,1 C 0,8 UV-I 0,4 C 61 % 74 % 11 % 1020,0 hPa 0,0 l/m 3,5 km/h (1 Bft) 0,00 h 7,3 km/h (2 Bft)
29.09.2009 16:00 20,8 C 18,4 C 0,5 UV-I 0,3 C 59 % 71 % 8 % 1019,8 hPa 0,0 l/m 4,2 km/h (1 Bft) 0,00 h 5,8 km/h (2 Bft)
29.09.2009 17:00 20,8 C 17,9 C 0,0 UV-I 0,0 C 59 % 72 % 0 % 1019,7 hPa 0,0 l/m 3,3 km/h (1 Bft) 0,00 h 6,1 km/h (2 Bft)
29.09.2009 18:00 20,5 C 17,1 C 0,0 UV-I 0,0 C 60 % 77 % 0 % 1019,8 hPa 0,0 l/m 4,1 km/h (1 Bft) 0,00 h 5,8 km/h (2 Bft)
29.09.2009 19:00 20,4 C 16,3 C 0,0 UV-I 0,0 C 62 % 82 % 0 % 1020,1 hPa 0,0 l/m 2,1 km/h (1 Bft) 0,00 h 3,3 km/h (1 Bft)
29.09.2009 20:00 20,4 C 15,6 C 0,0 UV-I 0,0 C 63 % 86 % 0 % 1020,5 hPa 0,0 l/m 1,9 km/h (1 Bft) 0,00 h 3,5 km/h (1 Bft)
29.09.2009 21:00 19,9 C 15,1 C 0,0 UV-I 0,0 C 64 % 88 % 0 % 1020,3 hPa 0,0 l/m 1,5 km/h (1 Bft) 0,00 h 1,6 km/h (1 Bft)
29.09.2009 22:00 20,0 C 15,1 C 0,0 UV-I 0,0 C 65 % 88 % 0 % 1020,2 hPa 0,0 l/m 1,3 km/h (1 Bft) 0,00 h 2,6 km/h (1 Bft)
29.09.2009 23:00 20,0 C 15,1 C 0,0 UV-I 0,0 C 65 % 89 % 0 % 1020,1 hPa 0,0 l/m 1,4 km/h (1 Bft) 0,00 h 2,3 km/h (1 Bft)
30.09.2009 00:00 19,8 C 15,0 C 0,0 UV-I 0,0 C 66 % 90 % 0 % 1020,1 hPa 0,0 l/m 1,1 km/h (0 Bft) 0,00 h 1,9 km/h (1 Bft)
30.09.2009 01:00 19,7 C 14,8 C 0,0 UV-I 0,0 C 67 % 91 % 0 % 1019,8 hPa 0,0 l/m 0,7 km/h (0 Bft) 0,00 h 1,0 km/h (0 Bft)
30.09.2009 02:00 19,7 C 14,7 C 0,0 UV-I 0,0 C 67 % 91 % 0 % 1019,8 hPa 0,0 l/m 0,4 km/h (0 Bft) 0,00 h 1,0 km/h (0 Bft)
30.09.2009 03:00 19,7 C 14,7 C 0,0 UV-I 0,0 C 67 % 91 % 0 % 1019,5 hPa 0,0 l/m 0,5 km/h (0 Bft) 0,00 h 0,8 km/h (0 Bft)
30.09.2009 04:00 19,6 C 14,7 C 0,0 UV-I 0,0 C 68 % 92 % 0 % 1019,0 hPa 0,0 l/m 0,3 km/h (0 Bft) 0,00 h 0,8 km/h (0 Bft)
30.09.2009 05:00 19,6 C 14,5 C 0,0 UV-I 0,0 C 68 % 92 % 0 % 1018,9 hPa 0,0 l/m 0,2 km/h (0 Bft) 0,00 h 0,5 km/h (0 Bft)
30.09.2009 06:00 19,6 C 14,5 C 0,0 UV-I 0,0 C 68 % 92 % 0 % 1018,8 hPa 0,0 l/m 0,7 km/h (0 Bft) 0,00 h 1,1 km/h (1 Bft)
30.09.2009 07:00 19,7 C 14,5 C 0,0 UV-I 0,0 C 68 % 93 % 0 % 1019,0 hPa 0,1 l/m 0,5 km/h (0 Bft) 0,00 h 0,8 km/h (0 Bft)
30.09.2009 08:00 19,7 C 14,4 C 0,0 UV-I 0,0 C 68 % 93 % 0 % 1019,1 hPa 0,1 l/m 0,2 km/h (0 Bft) 0,00 h 0,3 km/h (0 Bft)
30.09.2009 09:00 19,8 C 14,8 C 0,3 UV-I 0,1 C 68 % 94 % 2 % 1019,3 hPa 0,0 l/m 0,8 km/h (0 Bft) 0,00 h 1,9 km/h (1 Bft)
30.09.2009 10:00 20,0 C 15,4 C 0,4 UV-I 0,3 C 68 % 93 % 9 % 1019,2 hPa 0,0 l/m 0,5 km/h (0 Bft) 0,00 h 1,2 km/h (1 Bft)
30.09.2009 11:00 20,1 C 16,1 C 0,9 UV-I 0,7 C 68 % 92 % 20 % 1019,2 hPa 0,0 l/m 1,2 km/h (1 Bft) 0,00 h 2,9 km/h (1 Bft)
30.09.2009 12:00 20,3 C 16,8 C 1,2 UV-I 0,8 C 68 % 89 % 24 % 1019,0 hPa 0,0 l/m 1,5 km/h (1 Bft) 0,00 h 2,9 km/h (1 Bft)
30.09.2009 13:00 20,5 C 17,7 C 1,5 UV-I 1,1 C 68 % 86 % 30 % 1018,5 hPa 0,0 l/m 2,1 km/h (1 Bft) 0,00 h 4,3 km/h (1 Bft)
30.09.2009 14:00 20,8 C 18,6 C 2,0 UV-I 1,6 C 67 % 83 % 46 % 1018,0 hPa 0,0 l/m 1,8 km/h (1 Bft) 0,00 h 3,2 km/h (1 Bft)
30.09.2009 15:00 21,1 C 19,4 C 1,3 UV-I 0,8 C 66 % 79 % 23 % 1017,4 hPa 0,0 l/m 2,7 km/h (1 Bft) 0,00 h 4,9 km/h (1 Bft)
30.09.2009 16:00 21,2 C 19,4 C 0,6 UV-I 0,3 C 65 % 75 % 10 % 1016,9 hPa 0,0 l/m 2,6 km/h (1 Bft) 0,00 h 7,0 km/h (2 Bft)
30.09.2009 17:00 21,2 C 18,9 C 0,2 UV-I 0,0 C 65 % 76 % 0 % 1016,8 hPa 0,0 l/m 2,6 km/h (1 Bft) 0,00 h 4,1 km/h (1 Bft)
30.09.2009 18:00 21,1 C 18,3 C 0,0 UV-I 0,0 C 65 % 78 % 0 % 1016,4 hPa 0,0 l/m 0,7 km/h (0 Bft) 0,00 h 1,1 km/h (0 Bft)
30.09.2009 19:00 20,9 C 17,2 C 0,0 UV-I 0,0 C 66 % 81 % 0 % 1016,0 hPa 0,0 l/m 0,1 km/h (0 Bft) 0,00 h 0,1 km/h (0 Bft)
30.09.2009 20:00 20,5 C 15,9 C 0,0 UV-I 0,0 C 65 % 84 % 0 % 1016,0 hPa 0,0 l/m 0,0 km/h (0 Bft) 0,00 h 0,0 km/h (0 Bft)
30.09.2009 21:00 20,3 C 14,6 C 0,0 UV-I 0,0 C 65 % 87 % 0 % 1015,9 hPa 0,0 l/m 0,0 km/h (0 Bft) 0,00 h 0,1 km/h (0 Bft)
30.09.2009 22:00 20,1 C 14,0 C 0,0 UV-I 0,0 C 65 % 89 % 0 % 1015,8 hPa 0,0 l/m 0,0 km/h (0 Bft) 0,00 h 0,1 km/h (0 Bft)
30.09.2009 23:00 20,0 C 13,8 C 0,0 UV-I 0,0 C 64 % 89 % 0 % 1015,7 hPa 0,0 l/m 0,0 km/h (0 Bft) 0,00 h 0,0 km/h (0 Bft)
01.10.2009 00:00 19,9 C 13,6 C 0,0 UV-I 0,0 C 64 % 90 % 0 % 1015,2 hPa 0,0 l/m 0,1 km/h (0 Bft) 0,00 h 0,3 km/h (0 Bft)
01.10.2009 01:00 19,8 C 13,9 C 0,0 UV-I 0,0 C 64 % 90 % 0 % 1014,9 hPa 0,0 l/m 0,8 km/h (0 Bft) 0,00 h 2,1 km/h (1 Bft)
01.10.2009 02:00 19,7 C 14,0 C 0,0 UV-I 0,0 C 64 % 90 % 0 % 1014,3 hPa 0,0 l/m 1,2 km/h (1 Bft) 0,00 h 3,5 km/h (1 Bft)
01.10.2009 03:00 19,6 C 13,9 C 0,0 UV-I 0,0 C 65 % 90 % 0 % 1013,9 hPa 0,0 l/m 0,6 km/h (0 Bft) 0,00 h 1,0 km/h (0 Bft)
01.10.2009 04:00 19,6 C 13,9 C 0,0 UV-I 0,0 C 65 % 91 % 0 % 1013,5 hPa 0,0 l/m 1,7 km/h (1 Bft) 0,00 h 3,4 km/h (1 Bft)
01.10.2009 05:00 19,6 C 14,0 C 0,0 UV-I 0,0 C 65 % 91 % 0 % 1013,2 hPa 0,0 l/m 2,0 km/h (1 Bft) 0,00 h 3,4 km/h (1 Bft)
01.10.2009 06:00 19,4 C 14,1 C 0,0 UV-I 0,0 C 66 % 91 % 0 % 1012,7 hPa 0,0 l/m 1,9 km/h (1 Bft) 0,00 h 2,9 km/h (1 Bft)
01.10.2009 07:00 19,3 C 14,1 C 0,0 UV-I 0,0 C 66 % 92 % 0 % 1012,5 hPa 0,0 l/m 2,3 km/h (1 Bft) 0,00 h 4,4 km/h (1 Bft)
01.10.2009 08:00 19,3 C 14,0 C 0,0 UV-I 0,0 C 66 % 92 % 0 % 1012,7 hPa 0,0 l/m 2,3 km/h (1 Bft) 0,00 h 4,3 km/h (1 Bft)
01.10.2009 09:00 19,4 C 14,3 C 0,1 UV-I 0,0 C 67 % 92 % 0 % 1013,2 hPa 0,2 l/m 2,2 km/h (1 Bft) 0,00 h 4,7 km/h (1 Bft)
01.10.2009 10:00 19,6 C 14,9 C 1,0 UV-I 1,0 C 67 % 92 % 29 % 1013,6 hPa 0,0 l/m 2,9 km/h (1 Bft) 0,00 h 5,2 km/h (1 Bft)
01.10.2009 11:00 19,9 C 16,1 C 1,3 UV-I 1,3 C 67 % 88 % 38 % 1013,9 hPa 0,0 l/m 4,5 km/h (1 Bft) 0,00 h 8,4 km/h (2 Bft)
01.10.2009 12:00 20,1 C 15,1 C 0,4 UV-I 0,0 C 65 % 85 % 0 % 1014,3 hPa 0,1 l/m 2,9 km/h (1 Bft) 0,00 h 4,5 km/h (1 Bft)
01.10.2009 13:00 20,2 C 14,6 C 0,8 UV-I 0,3 C 65 % 88 % 8 % 1015,2 hPa 0,0 l/m 1,3 km/h (1 Bft) 0,00 h 2,2 km/h (1 Bft)
01.10.2009 14:00 20,4 C 14,7 C 1,6 UV-I 1,2 C 64 % 86 % 35 % 1015,2 hPa 0,0 l/m 2,4 km/h (1 Bft) 0,23 h 4,2 km/h (1 Bft)
01.10.2009 15:00 21,3 C 16,1 C 1,7 UV-I 2,4 C 61 % 79 % 63 % 1016,3 hPa 0,0 l/m 3,9 km/h (1 Bft) 0,53 h 5,3 km/h (1 Bft)
01.10.2009 16:00 21,2 C 15,3 C 0,3 UV-I 0,0 C 59 % 77 % 0 % 1016,2 hPa 0,0 l/m 4,0 km/h (1 Bft) 0,00 h 5,7 km/h (1 Bft)
01.10.2009 17:00 20,4 C 13,8 C 0,1 UV-I 0,0 C 58 % 80 % 0 % 1016,3 hPa 0,0 l/m 1,7 km/h (1 Bft) 0,00 h 2,8 km/h (1 Bft)
01.10.2009 18:00 20,2 C 13,7 C 0,1 UV-I 0,0 C 59 % 82 % 1 % 1016,6 hPa 0,0 l/m 0,6 km/h (0 Bft) 0,00 h 0,9 km/h (0 Bft)
01.10.2009 19:00 20,0 C 13,2 C 0,0 UV-I 0,0 C 59 % 83 % 0 % 1017,0 hPa 0,0 l/m 0,0 km/h (0 Bft) 0,00 h 0,0 km/h (0 Bft)
01.10.2009 20:00 19,3 C 11,8 C 0,0 UV-I 0,0 C 58 % 84 % 0 % 1017,6 hPa 0,0 l/m 0,0 km/h (0 Bft) 0,00 h 0,0 km/h (0 Bft)
01.10.2009 21:00 19,0 C 10,4 C 0,0 UV-I 0,0 C 57 % 85 % 0 % 1017,9 hPa 0,0 l/m 0,0 km/h (0 Bft) 0,00 h 0,0 km/h (0 Bft)
01.10.2009 22:00 18,7 C 9,2 C 0,0 UV-I 0,0 C 56 % 87 % 0 % 1017,9 hPa 0,0 l/m 0,0 km/h (0 Bft) 0,00 h 0,0 km/h (0 Bft)
01.10.2009 23:00 18,4 C 8,7 C 0,0 UV-I 0,0 C 56 % 89 % 0 % 1018,1 hPa 0,0 l/m 0,0 km/h (0 Bft) 0,00 h 0,1 km/h (0 Bft)
02.10.2009 00:00 18,2 C 8,6 C 0,0 UV-I 0,0 C 55 % 88 % 0 % 1017,9 hPa 0,0 l/m 0,0 km/h (0 Bft) 0,00 h 0,3 km/h (0 Bft)
02.10.2009 01:00 18,0 C 8,0 C 0,0 UV-I 0,0 C 55 % 88 % 0 % 1017,7 hPa 0,0 l/m 0,0 km/h (0 Bft) 0,00 h 0,0 km/h (0 Bft)
02.10.2009 02:00 17,9 C 7,4 C 0,0 UV-I 0,0 C 55 % 90 % 0 % 1017,7 hPa 0,0 l/m 0,0 km/h (0 Bft) 0,00 h 0,1 km/h (0 Bft)
02.10.2009 03:00 17,8 C 7,4 C 0,0 UV-I 0,0 C 55 % 91 % 0 % 1017,4 hPa 0,0 l/m 0,1 km/h (0 Bft) 0,00 h 0,4 km/h (0 Bft)
02.10.2009 04:00 17,7 C 7,6 C 0,0 UV-I 0,0 C 55 % 91 % 0 % 1016,9 hPa 0,0 l/m 0,5 km/h (0 Bft) 0,00 h 1,2 km/h (1 Bft)
02.10.2009 05:00 17,6 C 7,7 C 0,0 UV-I 0,0 C 55 % 91 % 0 % 1017,0 hPa 0,0 l/m 0,4 km/h (0 Bft) 0,00 h 1,5 km/h (1 Bft)
02.10.2009 06:00 17,5 C 7,8 C 0,0 UV-I 0,0 C 54 % 90 % 0 % 1016,9 hPa 0,0 l/m 0,5 km/h (0 Bft) 0,00 h 0,5 km/h (0 Bft)
02.10.2009 07:00 17,4 C 7,7 C 0,0 UV-I 0,0 C 55 % 89 % 0 % 1016,8 hPa 0,0 l/m 0,3 km/h (0 Bft) 0,00 h 0,7 km/h (0 Bft)
02.10.2009 08:00 17,3 C 7,9 C 0,1 UV-I 0,0 C 55 % 89 % 0 % 1016,8 hPa 0,0 l/m 1,1 km/h (1 Bft) 0,00 h 2,1 km/h (1 Bft)
02.10.2009 09:00 17,2 C 8,9 C 0,4 UV-I 0,6 C 55 % 88 % 18 % 1016,9 hPa 0,0 l/m 2,0 km/h (1 Bft) 0,00 h 4,1 km/h (1 Bft)
02.10.2009 10:00 17,3 C 10,1 C 0,2 UV-I 0,4 C 55 % 85 % 12 % 1017,1 hPa 0,0 l/m 2,4 km/h (1 Bft) 0,00 h 4,5 km/h (1 Bft)
02.10.2009 11:00 17,4 C 10,6 C 0,2 UV-I 0,1 C 55 % 84 % 2 % 1017,2 hPa 0,0 l/m 3,8 km/h (1 Bft) 0,00 h 7,3 km/h (2 Bft)
02.10.2009 12:00 17,4 C 10,4 C 0,6 UV-I 0,0 C 57 % 88 % 0 % 1017,4 hPa 0,0 l/m 1,4 km/h (1 Bft) 0,00 h 2,5 km/h (1 Bft)
02.10.2009 13:00 18,0 C 12,2 C 4,6 UV-I 3,1 C 57 % 85 % 83 % 1017,3 hPa 0,0 l/m 3,6 km/h (1 Bft) 0,70 h 6,4 km/h (2 Bft)
02.10.2009 14:00 18,9 C 14,3 C 0,8 UV-I 1,1 C 55 % 75 % 31 % 1017,3 hPa 0,0 l/m 3,4 km/h (1 Bft) 0,07 h 4,3 km/h (1 Bft)
02.10.2009 15:00 18,8 C 13,7 C 0,1 UV-I 0,0 C 54 % 74 % 0 % 1016,9 hPa 0,0 l/m 2,2 km/h (1 Bft) 0,00 h 3,6 km/h (1 Bft)
02.10.2009 16:00 18,7 C 13,8 C 0,6 UV-I 0,4 C 55 % 75 % 11 % 1016,8 hPa 0,0 l/m 1,2 km/h (1 Bft) 0,00 h 2,0 km/h (1 Bft)
02.10.2009 17:00 18,8 C 14,0 C 0,2 UV-I 0,1 C 55 % 73 % 4 % 1016,9 hPa 0,0 l/m 2,1 km/h (1 Bft) 0,00 h 3,7 km/h (1 Bft)
02.10.2009 18:00 18,5 C 13,7 C 0,0 UV-I 0,0 C 54 % 72 % 0 % 1016,9 hPa 0,1 l/m 2,3 km/h (1 Bft) 0,00 h 4,4 km/h (1 Bft)
02.10.2009 19:00 18,6 C 13,0 C 0,0 UV-I 0,0 C 55 % 77 % 0 % 1017,5 hPa 0,0 l/m 0,2 km/h (0 Bft) 0,00 h 0,2 km/h (0 Bft)
02.10.2009 20:00 18,5 C 12,4 C 0,0 UV-I 0,0 C 56 % 80 % 0 % 1017,8 hPa 0,0 l/m 0,0 km/h (0 Bft) 0,00 h 0,0 km/h (0 Bft)
02.10.2009 21:00 18,1 C 11,9 C 0,0 UV-I 0,0 C 58 % 83 % 0 % 1017,6 hPa 0,0 l/m 0,0 km/h (0 Bft) 0,00 h 0,0 km/h (0 Bft)
02.10.2009 22:00 18,1 C 11,4 C 0,0 UV-I 0,0 C 58 % 84 % 0 % 1017,8 hPa 0,0 l/m 0,0 km/h (0 Bft) 0,00 h 0,0 km/h (0 Bft)
02.10.2009 23:00 17,9 C 10,6 C 0,0 UV-I 0,0 C 57 % 85 % 0 % 1017,4 hPa 0,0 l/m 0,3 km/h (0 Bft) 0,00 h 0,5 km/h (0 Bft)
03.10.2009 00:00 17,9 C 9,9 C 0,0 UV-I 0,0 C 56 % 83 % 0 % 1016,9 hPa 0,0 l/m 0,6 km/h (0 Bft) 0,00 h 1,2 km/h (1 Bft)
03.10.2009 01:00 17,8 C 9,4 C 0,0 UV-I 0,0 C 55 % 83 % 0 % 1016,3 hPa 0,0 l/m 1,0 km/h (0 Bft) 0,00 h 2,3 km/h (1 Bft)
03.10.2009 02:00 17,7 C 9,1 C 0,0 UV-I 0,0 C 54 % 84 % 0 % 1016,0 hPa 0,0 l/m 0,7 km/h (0 Bft) 0,00 h 1,4 km/h (1 Bft)
03.10.2009 03:00 17,3 C 9,1 C 0,0 UV-I 0,0 C 53 % 84 % 0 % 1015,6 hPa 0,0 l/m 1,7 km/h (1 Bft) 0,00 h 4,0 km/h (1 Bft)
03.10.2009 04:00 17,0 C 9,1 C 0,0 UV-I 0,0 C 53 % 83 % 0 % 1014,9 hPa 0,0 l/m 2,7 km/h (1 Bft) 0,00 h 4,4 km/h (1 Bft)
03.10.2009 05:00 16,8 C 9,1 C 0,0 UV-I 0,0 C 53 % 84 % 0 % 1014,1 hPa 0,0 l/m 3,2 km/h (1 Bft) 0,00 h 6,2 km/h (2 Bft)
03.10.2009 06:00 16,6 C 8,9 C 0,0 UV-I 0,0 C 54 % 84 % 0 % 1013,4 hPa 0,0 l/m 2,9 km/h (1 Bft) 0,00 h 4,7 km/h (1 Bft)
03.10.2009 07:00 16,5 C 9,5 C 0,0 UV-I 0,1 C 55 % 85 % 1 % 1012,4 hPa 0,0 l/m 3,1 km/h (1 Bft) 0,03 h 5,9 km/h (2 Bft)
03.10.2009 08:00 16,7 C 10,6 C 0,0 UV-I 0,1 C 56 % 84 % 4 % 1012,3 hPa 0,0 l/m 3,2 km/h (1 Bft) 0,00 h 4,5 km/h (1 Bft)
03.10.2009 09:00 16,8 C 11,6 C 0,2 UV-I 0,2 C 56 % 81 % 6 % 1012,1 hPa 0,0 l/m 5,7 km/h (1 Bft) 0,00 h 9,3 km/h (2 Bft)
03.10.2009 10:00 17,0 C 12,3 C 0,4 UV-I 0,1 C 57 % 80 % 3 % 1012,0 hPa 0,0 l/m 5,9 km/h (2 Bft) 0,00 h 10,8 km/h (2 Bft)
03.10.2009 11:00 17,1 C 12,9 C 1,5 UV-I 0,8 C 58 % 81 % 22 % 1011,6 hPa 0,0 l/m 7,0 km/h (2 Bft) 0,00 h 12,4 km/h (3 Bft)
03.10.2009 12:00 17,5 C 13,8 C 1,1 UV-I 0,5 C 59 % 79 % 14 % 1011,1 hPa 0,0 l/m 7,0 km/h (2 Bft) 0,00 h 10,3 km/h (2 Bft)
03.10.2009 13:00 17,7 C 14,2 C 1,4 UV-I 0,5 C 59 % 78 % 16 % 1010,9 hPa 0,0 l/m 7,8 km/h (2 Bft) 0,00 h 9,8 km/h (2 Bft)
03.10.2009 14:00 17,9 C 14,9 C 1,7 UV-I 0,8 C 58 % 73 % 24 % 1010,1 hPa 0,0 l/m 8,8 km/h (2 Bft) 0,00 h 13,9 km/h (3 Bft)
03.10.2009 15:00 18,0 C 15,1 C 0,9 UV-I 0,1 C 57 % 72 % 4 % 1009,4 hPa 0,0 l/m 9,5 km/h (2 Bft) 0,00 h 16,6 km/h (3 Bft)
03.10.2009 16:00 17,9 C 14,7 C 0,2 UV-I 0,0 C 57 % 72 % 0 % 1008,7 hPa 0,0 l/m 8,3 km/h (2 Bft) 0,00 h 12,4 km/h (3 Bft)
03.10.2009 17:00 17,8 C 14,4 C 0,0 UV-I 0,0 C 57 % 72 % 0 % 1007,9 hPa 0,0 l/m 7,6 km/h (2 Bft) 0,00 h 11,8 km/h (2 Bft)
03.10.2009 18:00 17,7 C 14,4 C 0,0 UV-I 0,0 C 57 % 72 % 0 % 1007,2 hPa 0,0 l/m 7,5 km/h (2 Bft) 0,00 h 9,7 km/h (2 Bft)
03.10.2009 19:00 17,6 C 14,6 C 0,0 UV-I 0,0 C 57 % 71 % 0 % 1007,4 hPa 0,0 l/m 8,2 km/h (2 Bft) 0,00 h 11,1 km/h (2 Bft)
03.10.2009 20:00 17,6 C 14,7 C 0,0 UV-I 0,0 C 57 % 69 % 0 % 1007,3 hPa 0,0 l/m 8,1 km/h (2 Bft) 0,00 h 10,9 km/h (2 Bft)
03.10.2009 21:00 17,6 C 14,7 C 0,0 UV-I 0,0 C 57 % 70 % 0 % 1007,4 hPa 0,0 l/m 8,8 km/h (2 Bft) 0,00 h 11,7 km/h (2 Bft)
03.10.2009 22:00 17,5 C 14,4 C 0,0 UV-I 0,0 C 57 % 72 % 0 % 1007,4 hPa 0,0 l/m 8,5 km/h (2 Bft) 0,00 h 11,6 km/h (2 Bft)
03.10.2009 23:00 17,5 C 14,3 C 0,0 UV-I 0,0 C 58 % 74 % 0 % 1007,2 hPa 0,0 l/m 9,2 km/h (2 Bft) 0,00 h 12,8 km/h (3 Bft)
04.10.2009 00:00 17,5 C 14,4 C 0,0 UV-I 0,0 C 58 % 75 % 0 % 1006,8 hPa 0,0 l/m 8,8 km/h (2 Bft) 0,00 h 14,6 km/h (3 Bft)
04.10.2009 01:00 17,4 C 14,1 C 0,0 UV-I 0,0 C 59 % 77 % 0 % 1006,4 hPa 0,0 l/m 8,2 km/h (2 Bft) 0,00 h 10,6 km/h (2 Bft)
04.10.2009 02:00 17,4 C 14,2 C 0,0 UV-I 0,0 C 60 % 76 % 0 % 1006,2 hPa 0,0 l/m 8,9 km/h (2 Bft) 0,00 h 12,8 km/h (3 Bft)
04.10.2009 03:00 17,4 C 14,4 C 0,0 UV-I 0,0 C 60 % 76 % 0 % 1006,2 hPa 0,0 l/m 7,9 km/h (2 Bft) 0,00 h 11,5 km/h (2 Bft)
04.10.2009 04:00 17,4 C 14,4 C 0,0 UV-I 0,0 C 60 % 76 % 0 % 1006,2 hPa 0,0 l/m 7,6 km/h (2 Bft) 0,00 h 9,8 km/h (2 Bft)
04.10.2009 05:00 17,5 C 13,9 C 0,0 UV-I 0,0 C 62 % 82 % 0 % 1006,7 hPa 0,0 l/m 5,3 km/h (1 Bft) 0,00 h 8,0 km/h (2 Bft)
04.10.2009 06:00 17,6 C 13,2 C 0,0 UV-I 0,0 C 64 % 86 % 0 % 1007,1 hPa 1,5 l/m 4,3 km/h (1 Bft) 0,00 h 6,0 km/h (2 Bft)
04.10.2009 07:00 17,5 C 12,8 C 0,0 UV-I 0,0 C 64 % 87 % 0 % 1007,8 hPa 0,1 l/m 3,1 km/h (1 Bft) 0,00 h 4,8 km/h (1 Bft)
04.10.2009 08:00 17,4 C 12,6 C 0,0 UV-I 0,0 C 64 % 87 % 0 % 1008,3 hPa 0,0 l/m 3,7 km/h (1 Bft) 0,00 h 5,3 km/h (1 Bft)
04.10.2009 09:00 17,5 C 12,7 C 0,1 UV-I 0,0 C 63 % 85 % 0 % 1008,8 hPa 0,0 l/m 4,0 km/h (1 Bft) 0,00 h 6,5 km/h (2 Bft)
04.10.2009 10:00 17,4 C 13,0 C 1,1 UV-I 0,5 C 62 % 84 % 14 % 1009,4 hPa 0,0 l/m 4,1 km/h (1 Bft) 0,00 h 6,4 km/h (2 Bft)
04.10.2009 11:00 17,7 C 13,8 C 2,0 UV-I 1,5 C 62 % 82 % 42 % 1010,3 hPa 0,0 l/m 3,5 km/h (1 Bft) 0,00 h 5,7 km/h (1 Bft)
04.10.2009 12:00 18,1 C 14,8 C 5,1 UV-I 2,6 C 60 % 72 % 59 % 1010,6 hPa 0,0 l/m 4,9 km/h (1 Bft) 0,30 h 6,3 km/h (2 Bft)
04.10.2009 13:00 18,8 C 16,7 C 5,6 UV-I 3,9 C 55 % 60 % 90 % 1011,2 hPa 0,0 l/m 6,2 km/h (2 Bft) 0,63 h 11,1 km/h (2 Bft)
04.10.2009 14:00 19,6 C 17,4 C 2,8 UV-I 3,0 C 50 % 53 % 83 % 1012,2 hPa 0,0 l/m 5,7 km/h (1 Bft) 0,53 h 9,8 km/h (2 Bft)
04.10.2009 15:00 19,7 C 16,8 C 1,4 UV-I 0,6 C 50 % 55 % 18 % 1012,3 hPa 0,0 l/m 4,7 km/h (1 Bft) 0,00 h 7,0 km/h (2 Bft)
04.10.2009 16:00 19,7 C 16,3 C 1,0 UV-I 0,6 C 49 % 58 % 17 % 1012,3 hPa 0,0 l/m 3,7 km/h (1 Bft) 0,00 h 5,6 km/h (1 Bft)
04.10.2009 17:00 19,4 C 15,7 C 0,1 UV-I 0,0 C 50 % 59 % 1 % 1012,3 hPa 0,0 l/m 3,6 km/h (1 Bft) 0,00 h 5,4 km/h (1 Bft)
04.10.2009 18:00 19,1 C 15,1 C 0,0 UV-I 0,0 C 52 % 60 % 0 % 1012,7 hPa 0,0 l/m 2,7 km/h (1 Bft) 0,00 h 4,1 km/h (1 Bft)
04.10.2009 19:00 18,8 C 14,1 C 0,0 UV-I 0,0 C 51 % 62 % 0 % 1013,3 hPa 0,0 l/m 1,7 km/h (1 Bft) 0,00 h 1,6 km/h (1 Bft)
04.10.2009 20:00 18,6 C 12,7 C 0,0 UV-I 0,0 C 55 % 67 % 0 % 1014,0 hPa 0,0 l/m 0,2 km/h (0 Bft) 0,00 h 0,4 km/h (0 Bft)
04.10.2009 21:00 18,4 C 11,4 C 0,0 UV-I 0,0 C 56 % 72 % 0 % 1014,6 hPa 0,0 l/m 0,0 km/h (0 Bft) 0,00 h 0,0 km/h (0 Bft)
04.10.2009 22:00 18,2 C 10,2 C 0,0 UV-I 0,0 C 55 % 77 % 0 % 1015,2 hPa 0,0 l/m 0,0 km/h (0 Bft) 0,00 h 0,0 km/h (0 Bft)
04.10.2009 23:00 17,8 C 8,9 C 0,0 UV-I 0,0 C 55 % 81 % 0 % 1015,5 hPa 0,0 l/m 0,0 km/h (0 Bft) 0,00 h 0,0 km/h (0 Bft)
Min-Datum _ 03.10.09 02.10.09 28.09.09 28.09.09 04.10.09 04.10.09 28.09.09 04.10.09 - 28.09.09 - 28.09.09
_ Min-Zeit 06:58 02:40 00:00 00:00 16:02 14:14 00:00 02:36 - 00:00 - 00:00
Minimum _ 16,5 C 7,2 C 0,0 UV-I 0,0 C 49 % 51 % 0 % 1006,1 hPa - 0,0 km/h (0 Bft) - 0,0 km/h (0 Bft)
Max-Datum _ 01.10.09 30.09.09 04.10.09 04.10.09 30.09.09 28.09.09 28.09.09 28.09.09 04.10.09 03.10.09 28.09.09 03.10.09
_ Max-Zeit 15:28 16:12 12:50 12:54 10:48 08:22 11:22 14:36 06:10 15:50 10:46 14:22
Maximum _ 21,6 C 19,6 C 9,8 UV-I 6,3 C 69 % 95 % 100 % 1027,2 hPa 1,5 l/m 12,0 km/h
O-NO (2 Bft)
0,03 h 42,8 km/h
NO (6 Bft)
Durchschnitt _ 19,1 C 13,7 C 0,4 UV-I 0,3 C 60 % 82 % 9 % 1016,8 hPa #2,2 l/m 2,4 km/h (1 Bft) #5:08 h 4,0 km/h (1 Bft)
© 2012 W. Hausmann